sensor_id;sensor_type;location;lat;lon;timestamp;pressure;altitude;pressure_sealevel;temperature;humidity
11542;BME280;5827;49.482;7.716;2023-02-18T00:00:44;99694.88;;;14.00;100.00
11542;BME280;5827;49.482;7.716;2023-02-18T00:02:46;99688.84;;;13.93;100.00
11542;BME280;5827;49.482;7.716;2023-02-18T00:04:49;99694.31;;;14.15;100.00
11542;BME280;5827;49.482;7.716;2023-02-18T00:06:50;99679.06;;;14.20;100.00
11542;BME280;5827;49.482;7.716;2023-02-18T00:08:53;99682.31;;;14.06;100.00
11542;BME280;5827;49.482;7.716;2023-02-18T00:10:54;99681.91;;;14.14;100.00
11542;BME280;5827;49.482;7.716;2023-02-18T00:12:56;99689.69;;;14.27;100.00
11542;BME280;5827;49.482;7.716;2023-02-18T00:15:00;99686.19;;;14.27;100.00
11542;BME280;5827;49.482;7.716;2023-02-18T00:17:02;99682.16;;;14.12;100.00
11542;BME280;5827;49.482;7.716;2023-02-18T00:19:05;99685.91;;;14.28;100.00
11542;BME280;5827;49.482;7.716;2023-02-18T00:21:08;99687.72;;;14.22;100.00
11542;BME280;5827;49.482;7.716;2023-02-18T00:23:10;99696.78;;;14.16;100.00
11542;BME280;5827;49.482;7.716;2023-02-18T00:25:11;99693.66;;;14.24;100.00
11542;BME280;5827;49.482;7.716;2023-02-18T00:27:13;99686.19;;;13.81;100.00
11542;BME280;5827;49.482;7.716;2023-02-18T00:29:14;99675.38;;;13.93;100.00
11542;BME280;5827;49.482;7.716;2023-02-18T00:31:19;99687.66;;;14.34;100.00
11542;BME280;5827;49.482;7.716;2023-02-18T00:33:21;99686.81;;;14.17;100.00
11542;BME280;5827;49.482;7.716;2023-02-18T00:35:22;99684.44;;;14.37;100.00
11542;BME280;5827;49.482;7.716;2023-02-18T00:37:25;99687.81;;;14.28;100.00
11542;BME280;5827;49.482;7.716;2023-02-18T00:39:27;99675.31;;;14.21;100.00
11542;BME280;5827;49.482;7.716;2023-02-18T00:41:28;99680.53;;;14.28;100.00
11542;BME280;5827;49.482;7.716;2023-02-18T00:43:30;99675.06;;;14.40;100.00
11542;BME280;5827;49.482;7.716;2023-02-18T00:45:31;99660.69;;;14.17;100.00
11542;BME280;5827;49.482;7.716;2023-02-18T00:47:33;99677.22;;;14.55;100.00
11542;BME280;5827;49.482;7.716;2023-02-18T00:49:34;99680.53;;;14.45;100.00
11542;BME280;5827;49.482;7.716;2023-02-18T00:51:36;99675.78;;;14.02;100.00
11542;BME280;5827;49.482;7.716;2023-02-18T00:53:39;99671.31;;;14.07;100.00
11542;BME280;5827;49.482;7.716;2023-02-18T00:55:41;99666.09;;;14.17;100.00
11542;BME280;5827;49.482;7.716;2023-02-18T00:57:43;99671.28;;;13.90;100.00
11542;BME280;5827;49.482;7.716;2023-02-18T00:59:45;99665.09;;;14.07;100.00
11542;BME280;5827;49.482;7.716;2023-02-18T01:01:46;99653.78;;;13.76;100.00
11542;BME280;5827;49.482;7.716;2023-02-18T01:03:49;99668.59;;;13.90;100.00
11542;BME280;5827;49.482;7.716;2023-02-18T01:05:51;99669.34;;;13.57;100.00
11542;BME280;5827;49.482;7.716;2023-02-18T01:07:52;99668.88;;;13.77;100.00
11542;BME280;5827;49.482;7.716;2023-02-18T01:09:55;99667.59;;;13.80;100.00
11542;BME280;5827;49.482;7.716;2023-02-18T01:11:57;99687.16;;;14.20;100.00
11542;BME280;5827;49.482;7.716;2023-02-18T01:13:58;99686.59;;;14.35;100.00
11542;BME280;5827;49.482;7.716;2023-02-18T01:16:00;99691.47;;;14.38;100.00
11542;BME280;5827;49.482;7.716;2023-02-18T01:18:02;99694.56;;;14.13;100.00
11542;BME280;5827;49.482;7.716;2023-02-18T01:20:04;99699.81;;;14.37;100.00
11542;BME280;5827;49.482;7.716;2023-02-18T01:22:06;99685.34;;;14.09;100.00
11542;BME280;5827;49.482;7.716;2023-02-18T01:24:07;99667.69;;;13.85;100.00
11542;BME280;5827;49.482;7.716;2023-02-18T01:26:10;99679.75;;;13.82;100.00
11542;BME280;5827;49.482;7.716;2023-02-18T01:28:13;99678.38;;;13.96;100.00
11542;BME280;5827;49.482;7.716;2023-02-18T01:30:16;99677.59;;;14.13;100.00
11542;BME280;5827;49.482;7.716;2023-02-18T01:32:17;99679.16;;;14.26;100.00
11542;BME280;5827;49.482;7.716;2023-02-18T01:34:19;99683.63;;;14.20;100.00
11542;BME280;5827;49.482;7.716;2023-02-18T01:36:20;99672.63;;;14.21;100.00
11542;BME280;5827;49.482;7.716;2023-02-18T01:38:22;99673.19;;;14.07;100.00
11542;BME280;5827;49.482;7.716;2023-02-18T01:40:26;99674.41;;;13.99;100.00
11542;BME280;5827;49.482;7.716;2023-02-18T01:42:29;99680.63;;;14.16;100.00
11542;BME280;5827;49.482;7.716;2023-02-18T01:44:32;99679.88;;;14.04;100.00
11542;BME280;5827;49.482;7.716;2023-02-18T01:46:34;99673.25;;;13.95;100.00
11542;BME280;5827;49.482;7.716;2023-02-18T01:48:38;99673.63;;;13.70;100.00
11542;BME280;5827;49.482;7.716;2023-02-18T01:50:44;99681.78;;;13.75;100.00
11542;BME280;5827;49.482;7.716;2023-02-18T01:52:46;99681.81;;;13.63;100.00
11542;BME280;5827;49.482;7.716;2023-02-18T01:54:49;99684.16;;;13.71;100.00
11542;BME280;5827;49.482;7.716;2023-02-18T01:56:54;99675.78;;;13.56;100.00
11542;BME280;5827;49.482;7.716;2023-02-18T01:59:01;99668.31;;;13.75;100.00
11542;BME280;5827;49.482;7.716;2023-02-18T02:01:04;99676.50;;;13.80;100.00
11542;BME280;5827;49.482;7.716;2023-02-18T02:03:06;99676.06;;;13.71;100.00
11542;BME280;5827;49.482;7.716;2023-02-18T02:05:08;99656.53;;;13.36;100.00
11542;BME280;5827;49.482;7.716;2023-02-18T02:07:10;99662.97;;;13.63;100.00
11542;BME280;5827;49.482;7.716;2023-02-18T02:09:14;99665.75;;;13.68;100.00
11542;BME280;5827;49.482;7.716;2023-02-18T02:11:23;99648.53;;;13.69;100.00
11542;BME280;5827;49.482;7.716;2023-02-18T02:13:33;99652.59;;;13.84;100.00
11542;BME280;5827;49.482;7.716;2023-02-18T02:15:46;99654.44;;;13.66;100.00
11542;BME280;5827;49.482;7.716;2023-02-18T02:18:02;99645.06;;;13.86;100.00
11542;BME280;5827;49.482;7.716;2023-02-18T02:20:41;99649.03;;;13.66;100.00
11542;BME280;5827;49.482;7.716;2023-02-18T02:26:05;99619.84;;;13.75;100.00
11542;BME280;5827;49.482;7.716;2023-02-18T02:28:35;99620.97;;;13.96;100.00
11542;BME280;5827;49.482;7.716;2023-02-18T02:31:02;99616.63;;;13.78;100.00
11542;BME280;5827;49.482;7.716;2023-02-18T02:33:37;99610.59;;;13.88;100.00
11542;BME280;5827;49.482;7.716;2023-02-18T02:35:52;99609.06;;;14.09;100.00
11542;BME280;5827;49.482;7.716;2023-02-18T02:38:00;99611.25;;;13.78;100.00
11542;BME280;5827;49.482;7.716;2023-02-18T02:40:13;99614.63;;;13.85;100.00
11542;BME280;5827;49.482;7.716;2023-02-18T02:42:23;99607.75;;;13.61;100.00
11542;BME280;5827;49.482;7.716;2023-02-18T02:44:38;99602.97;;;13.51;100.00
11542;BME280;5827;49.482;7.716;2023-02-18T02:46:44;99613.94;;;13.78;100.00
11542;BME280;5827;49.482;7.716;2023-02-18T02:48:50;99606.19;;;13.82;100.00
11542;BME280;5827;49.482;7.716;2023-02-18T02:51:01;99609.28;;;13.73;100.00
11542;BME280;5827;49.482;7.716;2023-02-18T02:53:10;99593.38;;;13.72;100.00
11542;BME280;5827;49.482;7.716;2023-02-18T02:55:14;99600.66;;;13.71;100.00
11542;BME280;5827;49.482;7.716;2023-02-18T02:57:45;99609.97;;;13.81;100.00
11542;BME280;5827;49.482;7.716;2023-02-18T02:59:49;99612.91;;;13.79;100.00
11542;BME280;5827;49.482;7.716;2023-02-18T03:02:03;99617.78;;;13.82;100.00
11542;BME280;5827;49.482;7.716;2023-02-18T03:04:24;99612.72;;;13.69;100.00
11542;BME280;5827;49.482;7.716;2023-02-18T03:06:51;99610.66;;;13.59;100.00
11542;BME280;5827;49.482;7.716;2023-02-18T03:09:02;99592.09;;;13.46;100.00
11542;BME280;5827;49.482;7.716;2023-02-18T03:11:11;99605.88;;;13.33;100.00
11542;BME280;5827;49.482;7.716;2023-02-18T03:13:25;99596.03;;;13.55;100.00
11542;BME280;5827;49.482;7.716;2023-02-18T03:15:38;99587.06;;;13.21;100.00
11542;BME280;5827;49.482;7.716;2023-02-18T03:17:47;99586.16;;;13.44;100.00
11542;BME280;5827;49.482;7.716;2023-02-18T03:19:54;99597.06;;;13.66;100.00
11542;BME280;5827;49.482;7.716;2023-02-18T03:22:00;99593.19;;;13.45;100.00
11542;BME280;5827;49.482;7.716;2023-02-18T03:24:07;99591.53;;;13.15;100.00
11542;BME280;5827;49.482;7.716;2023-02-18T03:26:12;99591.53;;;13.15;100.00
11542;BME280;5827;49.482;7.716;2023-02-18T03:28:18;99604.22;;;13.32;100.00
11542;BME280;5827;49.482;7.716;2023-02-18T03:30:24;99593.91;;;13.40;100.00
11542;BME280;5827;49.482;7.716;2023-02-18T03:32:28;99595.44;;;13.36;100.00
11542;BME280;5827;49.482;7.716;2023-02-18T03:34:33;99600.34;;;13.39;100.00
11542;BME280;5827;49.482;7.716;2023-02-18T03:36:37;99595.56;;;13.58;100.00
11542;BME280;5827;49.482;7.716;2023-02-18T03:38:43;99606.53;;;13.40;100.00
11542;BME280;5827;49.482;7.716;2023-02-18T03:40:46;99605.78;;;13.28;100.00
11542;BME280;5827;49.482;7.716;2023-02-18T03:42:48;99602.41;;;13.49;100.00
11542;BME280;5827;49.482;7.716;2023-02-18T03:44:50;99608.19;;;13.41;100.00
11542;BME280;5827;49.482;7.716;2023-02-18T03:46:52;99605.78;;;13.56;100.00
11542;BME280;5827;49.482;7.716;2023-02-18T03:48:54;99600.41;;;13.56;100.00
11542;BME280;5827;49.482;7.716;2023-02-18T03:50:55;99598.84;;;13.77;100.00
11542;BME280;5827;49.482;7.716;2023-02-18T03:52:57;99591.16;;;13.52;100.00
11542;BME280;5827;49.482;7.716;2023-02-18T03:55:00;99593.19;;;13.45;100.00
11542;BME280;5827;49.482;7.716;2023-02-18T03:57:02;99592.41;;;13.61;100.00
11542;BME280;5827;49.482;7.716;2023-02-18T03:59:03;99591.41;;;13.67;100.00
11542;BME280;5827;49.482;7.716;2023-02-18T04:01:05;99589.28;;;13.53;100.00
11542;BME280;5827;49.482;7.716;2023-02-18T04:03:07;99589.16;;;13.76;99.23
11542;BME280;5827;49.482;7.716;2023-02-18T04:05:09;99582.19;;;13.63;100.00
11542;BME280;5827;49.482;7.716;2023-02-18T04:07:10;99571.97;;;13.48;100.00
11542;BME280;5827;49.482;7.716;2023-02-18T04:09:12;99576.72;;;13.58;99.65
11542;BME280;5827;49.482;7.716;2023-02-18T04:11:15;99578.75;;;13.51;99.87
11542;BME280;5827;49.482;7.716;2023-02-18T04:13:18;99582.50;;;13.50;99.77
11542;BME280;5827;49.482;7.716;2023-02-18T04:15:19;99584.13;;;13.51;99.62
11542;BME280;5827;49.482;7.716;2023-02-18T04:17:21;99589.41;;;13.46;100.00
11542;BME280;5827;49.482;7.716;2023-02-18T04:19:23;99587.97;;;13.38;99.84
11542;BME280;5827;49.482;7.716;2023-02-18T04:21:24;99573.81;;;13.31;99.30
11542;BME280;5827;49.482;7.716;2023-02-18T04:23:26;99576.50;;;13.31;99.43
11542;BME280;5827;49.482;7.716;2023-02-18T04:25:28;99572.38;;;13.40;99.53
11542;BME280;5827;49.482;7.716;2023-02-18T04:27:31;99573.25;;;13.29;98.29
11542;BME280;5827;49.482;7.716;2023-02-18T04:29:33;99579.97;;;13.43;98.68
11542;BME280;5827;49.482;7.716;2023-02-18T04:31:34;99574.63;;;13.32;98.05
11542;BME280;5827;49.482;7.716;2023-02-18T04:33:36;99586.94;;;13.28;98.10
11542;BME280;5827;49.482;7.716;2023-02-18T04:35:38;99581.50;;;13.39;97.74
11542;BME280;5827;49.482;7.716;2023-02-18T04:37:42;99577.38;;;13.48;96.91
11542;BME280;5827;49.482;7.716;2023-02-18T04:39:43;99587.69;;;13.40;96.90
11542;BME280;5827;49.482;7.716;2023-02-18T04:41:45;99580.31;;;13.64;96.06
11542;BME280;5827;49.482;7.716;2023-02-18T04:43:48;99572.44;;;13.45;95.72
11542;BME280;5827;49.482;7.716;2023-02-18T04:45:50;99567.28;;;13.27;95.94
11542;BME280;5827;49.482;7.716;2023-02-18T04:47:52;99567.44;;;13.09;96.38
11542;BME280;5827;49.482;7.716;2023-02-18T04:49:54;99557.84;;;13.13;95.45
11542;BME280;5827;49.482;7.716;2023-02-18T04:51:55;99564.84;;;13.14;95.69
11542;BME280;5827;49.482;7.716;2023-02-18T04:53:57;99559.38;;;13.37;94.70
11542;BME280;5827;49.482;7.716;2023-02-18T04:55:59;99566.81;;;13.30;94.98
11542;BME280;5827;49.482;7.716;2023-02-18T04:58:00;99557.31;;;13.28;94.68
11542;BME280;5827;49.482;7.716;2023-02-18T05:00:05;99569.59;;;13.35;94.46
11542;BME280;5827;49.482;7.716;2023-02-18T05:02:07;99567.63;;;13.19;94.69
11542;BME280;5827;49.482;7.716;2023-02-18T05:04:09;99569.25;;;13.32;94.04
11542;BME280;5827;49.482;7.716;2023-02-18T05:06:11;99567.56;;;13.59;92.73
11542;BME280;5827;49.482;7.716;2023-02-18T05:08:12;99573.34;;;13.34;92.39
11542;BME280;5827;49.482;7.716;2023-02-18T05:10:16;99573.84;;;13.48;93.04
11542;BME280;5827;49.482;7.716;2023-02-18T05:12:18;99572.97;;;13.42;92.23
11542;BME280;5827;49.482;7.716;2023-02-18T05:14:20;99585.69;;;13.64;92.11
11542;BME280;5827;49.482;7.716;2023-02-18T05:16:23;99585.13;;;13.79;91.62
11542;BME280;5827;49.482;7.716;2023-02-18T05:18:24;99583.50;;;13.32;92.87
11542;BME280;5827;49.482;7.716;2023-02-18T05:20:27;99577.41;;;13.37;92.59
11542;BME280;5827;49.482;7.716;2023-02-18T05:22:28;99575.44;;;13.61;91.80
11542;BME280;5827;49.482;7.716;2023-02-18T05:24:30;99573.84;;;13.65;91.91
11542;BME280;5827;49.482;7.716;2023-02-18T05:26:31;99567.72;;;13.36;92.42
11542;BME280;5827;49.482;7.716;2023-02-18T05:28:33;99572.16;;;13.59;92.17
11542;BME280;5827;49.482;7.716;2023-02-18T05:30:34;99560.22;;;13.38;92.41
11542;BME280;5827;49.482;7.716;2023-02-18T05:32:37;99561.75;;;13.34;92.79
11542;BME280;5827;49.482;7.716;2023-02-18T05:34:39;99557.28;;;13.39;92.75
11542;BME280;5827;49.482;7.716;2023-02-18T05:36:40;99558.63;;;13.25;93.62
11542;BME280;5827;49.482;7.716;2023-02-18T05:38:42;99556.78;;;13.14;93.40
11542;BME280;5827;49.482;7.716;2023-02-18T05:40:43;99565.66;;;13.14;92.96
11542;BME280;5827;49.482;7.716;2023-02-18T05:42:45;99553.81;;;13.27;92.59
11542;BME280;5827;49.482;7.716;2023-02-18T05:44:47;99554.16;;;13.31;92.63
11542;BME280;5827;49.482;7.716;2023-02-18T05:46:48;99562.75;;;13.44;92.30
11542;BME280;5827;49.482;7.716;2023-02-18T05:48:51;99552.72;;;13.40;93.04
11542;BME280;5827;49.482;7.716;2023-02-18T05:50:53;99555.97;;;13.42;93.19
11542;BME280;5827;49.482;7.716;2023-02-18T05:52:54;99559.72;;;13.41;92.97
11542;BME280;5827;49.482;7.716;2023-02-18T05:54:56;99569.97;;;13.27;93.14
11542;BME280;5827;49.482;7.716;2023-02-18T05:56:57;99563.06;;;13.31;93.28
11542;BME280;5827;49.482;7.716;2023-02-18T05:58:59;99561.59;;;13.40;93.97
11542;BME280;5827;49.482;7.716;2023-02-18T06:01:00;99551.47;;;13.19;94.44
11542;BME280;5827;49.482;7.716;2023-02-18T06:03:02;99553.94;;;13.20;95.10
11542;BME280;5827;49.482;7.716;2023-02-18T06:05:06;99551.81;;;13.34;94.72
11542;BME280;5827;49.482;7.716;2023-02-18T06:07:08;99564.72;;;13.49;93.76
11542;BME280;5827;49.482;7.716;2023-02-18T06:09:09;99546.09;;;13.31;94.61
11542;BME280;5827;49.482;7.716;2023-02-18T06:11:11;99552.72;;;13.40;94.21
11542;BME280;5827;49.482;7.716;2023-02-18T06:13:12;99547.81;;;13.37;93.77
11542;BME280;5827;49.482;7.716;2023-02-18T06:15:14;99548.88;;;13.36;95.15
11542;BME280;5827;49.482;7.716;2023-02-18T06:17:16;99546.34;;;13.29;95.23
11542;BME280;5827;49.482;7.716;2023-02-18T06:19:17;99535.66;;;13.34;95.13
11542;BME280;5827;49.482;7.716;2023-02-18T06:21:20;99528.22;;;13.41;94.61
11542;BME280;5827;49.482;7.716;2023-02-18T06:23:22;99536.00;;;13.55;94.95
11542;BME280;5827;49.482;7.716;2023-02-18T06:25:23;99539.72;;;13.37;95.34
11542;BME280;5827;49.482;7.716;2023-02-18T06:27:25;99528.91;;;13.48;95.26
11542;BME280;5827;49.482;7.716;2023-02-18T06:29:26;99528.97;;;13.37;95.31
11542;BME280;5827;49.482;7.716;2023-02-18T06:31:29;99522.78;;;13.53;94.50
11542;BME280;5827;49.482;7.716;2023-02-18T06:33:30;99517.25;;;13.43;94.87
11542;BME280;5827;49.482;7.716;2023-02-18T06:35:32;99506.28;;;13.33;96.15
11542;BME280;5827;49.482;7.716;2023-02-18T06:37:35;99494.47;;;13.05;97.83
11542;BME280;5827;49.482;7.716;2023-02-18T06:39:37;99480.63;;;13.13;97.69
11542;BME280;5827;49.482;7.716;2023-02-18T06:41:39;99480.91;;;13.00;98.12
11542;BME280;5827;49.482;7.716;2023-02-18T06:43:41;99485.91;;;13.08;98.10
11542;BME280;5827;49.482;7.716;2023-02-18T06:45:42;99492.06;;;13.20;97.69
11542;BME280;5827;49.482;7.716;2023-02-18T06:47:44;99484.13;;;12.97;99.12
11542;BME280;5827;49.482;7.716;2023-02-18T06:49:45;99474.81;;;13.05;99.04
11542;BME280;5827;49.482;7.716;2023-02-18T06:51:47;99479.84;;;13.01;98.09
11542;BME280;5827;49.482;7.716;2023-02-18T06:53:50;99480.72;;;13.18;97.66
11542;BME280;5827;49.482;7.716;2023-02-18T06:55:52;99476.34;;;13.01;98.50
11542;BME280;5827;49.482;7.716;2023-02-18T06:57:53;99478.59;;;13.20;97.30
11542;BME280;5827;49.482;7.716;2023-02-18T06:59:55;99492.75;;;13.28;97.52
11542;BME280;5827;49.482;7.716;2023-02-18T07:01:56;99490.19;;;13.21;96.85
11542;BME280;5827;49.482;7.716;2023-02-18T07:03:58;99495.44;;;13.28;95.99
11542;BME280;5827;49.482;7.716;2023-02-18T07:05:59;99480.94;;;13.29;96.55
11542;BME280;5827;49.482;7.716;2023-02-18T07:08:01;99480.44;;;13.32;95.98
11542;BME280;5827;49.482;7.716;2023-02-18T07:10:05;99482.56;;;13.30;96.72
11542;BME280;5827;49.482;7.716;2023-02-18T07:12:07;99479.69;;;13.36;96.20
11542;BME280;5827;49.482;7.716;2023-02-18T07:14:08;99476.84;;;13.60;94.73
11542;BME280;5827;49.482;7.716;2023-02-18T07:16:10;99469.31;;;13.28;95.12
11542;BME280;5827;49.482;7.716;2023-02-18T07:18:11;99464.06;;;13.33;95.07
11542;BME280;5827;49.482;7.716;2023-02-18T07:20:13;99478.50;;;13.44;94.98
11542;BME280;5827;49.482;7.716;2023-02-18T07:22:15;99476.19;;;13.36;94.55
11542;BME280;5827;49.482;7.716;2023-02-18T07:24:17;99461.28;;;13.62;94.07
11542;BME280;5827;49.482;7.716;2023-02-18T07:26:20;99464.44;;;13.59;93.87
11542;BME280;5827;49.482;7.716;2023-02-18T07:28:21;99450.06;;;13.19;94.51
11542;BME280;5827;49.482;7.716;2023-02-18T07:30:23;99472.94;;;13.51;93.75
11542;BME280;5827;49.482;7.716;2023-02-18T07:32:24;99484.09;;;13.59;93.25
11542;BME280;5827;49.482;7.716;2023-02-18T07:34:26;99477.78;;;13.87;90.94
11542;BME280;5827;49.482;7.716;2023-02-18T07:36:27;99479.19;;;13.73;91.99
11542;BME280;5827;49.482;7.716;2023-02-18T07:38:29;99483.22;;;13.54;91.99
11542;BME280;5827;49.482;7.716;2023-02-18T07:40:31;99478.09;;;13.52;92.43
11542;BME280;5827;49.482;7.716;2023-02-18T07:42:34;99491.13;;;13.77;91.10
11542;BME280;5827;49.482;7.716;2023-02-18T07:44:36;99494.34;;;13.96;90.04
11542;BME280;5827;49.482;7.716;2023-02-18T07:46:38;99499.28;;;13.82;90.06
11542;BME280;5827;49.482;7.716;2023-02-18T07:48:40;99493.31;;;13.80;90.38
11542;BME280;5827;49.482;7.716;2023-02-18T07:50:43;99489.25;;;13.44;91.04
11542;BME280;5827;49.482;7.716;2023-02-18T07:52:45;99497.59;;;13.42;91.16
11542;BME280;5827;49.482;7.716;2023-02-18T07:54:46;99504.59;;;13.43;90.90
11542;BME280;5827;49.482;7.716;2023-02-18T07:56:48;99489.06;;;13.51;90.59
11542;BME280;5827;49.482;7.716;2023-02-18T07:58:51;99498.69;;;13.46;90.99
11542;BME280;5827;49.482;7.716;2023-02-18T08:00:53;99501.47;;;13.35;90.33
11542;BME280;5827;49.482;7.716;2023-02-18T08:02:55;99501.91;;;13.43;91.05
11542;BME280;5827;49.482;7.716;2023-02-18T08:04:57;99500.16;;;13.37;90.80
11542;BME280;5827;49.482;7.716;2023-02-18T08:06:58;99488.84;;;13.52;90.25
11542;BME280;5827;49.482;7.716;2023-02-18T08:09:00;99486.97;;;13.36;90.52
11542;BME280;5827;49.482;7.716;2023-02-18T08:11:01;99475.81;;;13.15;91.24
11542;BME280;5827;49.482;7.716;2023-02-18T08:13:03;99475.84;;;12.87;92.13
11542;BME280;5827;49.482;7.716;2023-02-18T08:15:06;99464.88;;;13.05;90.94
11542;BME280;5827;49.482;7.716;2023-02-18T08:17:08;99473.63;;;13.12;90.81
11542;BME280;5827;49.482;7.716;2023-02-18T08:19:09;99483.13;;;13.48;89.80
11542;BME280;5827;49.482;7.716;2023-02-18T08:21:11;99485.09;;;13.36;90.21
11542;BME280;5827;49.482;7.716;2023-02-18T08:23:13;99490.47;;;13.36;89.78
11542;BME280;5827;49.482;7.716;2023-02-18T08:25:15;99497.22;;;13.56;88.72
11542;BME280;5827;49.482;7.716;2023-02-18T08:27:17;99491.44;;;13.64;88.24
11542;BME280;5827;49.482;7.716;2023-02-18T08:29:18;99480.53;;;13.54;88.09
11542;BME280;5827;49.482;7.716;2023-02-18T08:31:22;99492.19;;;13.42;89.18
11542;BME280;5827;49.482;7.716;2023-02-18T08:33:25;99477.13;;;13.13;89.98
11542;BME280;5827;49.482;7.716;2023-02-18T08:35:26;99481.59;;;13.53;89.36
11542;BME280;5827;49.482;7.716;2023-02-18T08:37:28;99479.47;;;13.71;88.28
11542;BME280;5827;49.482;7.716;2023-02-18T08:39:33;99471.94;;;13.23;89.43
11542;BME280;5827;49.482;7.716;2023-02-18T08:41:34;99473.16;;;13.83;87.40
11542;BME280;5827;49.482;7.716;2023-02-18T08:43:35;99468.69;;;13.71;88.34
11542;BME280;5827;49.482;7.716;2023-02-18T08:45:37;99456.94;;;13.44;88.58
11542;BME280;5827;49.482;7.716;2023-02-18T08:47:40;99457.50;;;13.46;88.44
11542;BME280;5827;49.482;7.716;2023-02-18T08:49:42;99463.72;;;13.63;87.62
11542;BME280;5827;49.482;7.716;2023-02-18T08:51:43;99459.97;;;14.03;87.21
11542;BME280;5827;49.482;7.716;2023-02-18T08:53:45;99461.88;;;13.86;86.82
11542;BME280;5827;49.482;7.716;2023-02-18T08:55:47;99475.50;;;13.96;85.94
11542;BME280;5827;49.482;7.716;2023-02-18T08:57:49;99452.72;;;13.48;87.81
11542;BME280;5827;49.482;7.716;2023-02-18T08:59:50;99460.75;;;13.65;88.52
11542;BME280;5827;49.482;7.716;2023-02-18T09:01:52;99461.06;;;13.85;87.66
11542;BME280;5827;49.482;7.716;2023-02-18T09:03:54;99472.84;;;13.62;87.76
11542;BME280;5827;49.482;7.716;2023-02-18T09:05:56;99485.16;;;13.58;88.46
11542;BME280;5827;49.482;7.716;2023-02-18T09:07:57;99474.72;;;13.62;86.97
11542;BME280;5827;49.482;7.716;2023-02-18T09:09:59;99477.19;;;13.63;86.79
11542;BME280;5827;49.482;7.716;2023-02-18T09:12:00;99480.22;;;13.33;86.90
11542;BME280;5827;49.482;7.716;2023-02-18T09:14:02;99484.69;;;13.61;86.84
11542;BME280;5827;49.482;7.716;2023-02-18T09:16:06;99494.63;;;13.78;86.72
11542;BME280;5827;49.482;7.716;2023-02-18T09:18:07;99493.16;;;13.87;85.64
11542;BME280;5827;49.482;7.716;2023-02-18T09:20:11;99493.00;;;13.77;85.32
11542;BME280;5827;49.482;7.716;2023-02-18T09:22:13;99505.16;;;13.62;86.27
11542;BME280;5827;49.482;7.716;2023-02-18T09:24:15;99511.78;;;13.71;86.82
11542;BME280;5827;49.482;7.716;2023-02-18T09:26:18;99509.31;;;13.53;86.64
11542;BME280;5827;49.482;7.716;2023-02-18T09:28:22;99516.72;;;13.96;85.34
11542;BME280;5827;49.482;7.716;2023-02-18T09:30:26;99513.72;;;13.93;85.41
11542;BME280;5827;49.482;7.716;2023-02-18T09:32:27;99508.91;;;13.95;85.75
11542;BME280;5827;49.482;7.716;2023-02-18T09:34:29;99508.22;;;14.05;84.71
11542;BME280;5827;49.482;7.716;2023-02-18T09:36:32;99498.59;;;13.92;84.34
11542;BME280;5827;49.482;7.716;2023-02-18T09:38:34;99513.31;;;13.51;85.13
11542;BME280;5827;49.482;7.716;2023-02-18T09:40:38;99501.81;;;13.72;85.54
11542;BME280;5827;49.482;7.716;2023-02-18T09:42:43;99508.91;;;13.78;85.50
11542;BME280;5827;49.482;7.716;2023-02-18T09:44:48;99498.22;;;13.66;85.84
11542;BME280;5827;49.482;7.716;2023-02-18T09:46:53;99505.97;;;13.46;85.66
11542;BME280;5827;49.482;7.716;2023-02-18T09:48:57;99502.97;;;13.59;85.80
11542;BME280;5827;49.482;7.716;2023-02-18T09:51:04;99509.00;;;13.50;84.81
11542;BME280;5827;49.482;7.716;2023-02-18T09:53:10;99506.53;;;13.65;84.80
11542;BME280;5827;49.482;7.716;2023-02-18T09:55:17;99494.66;;;13.61;84.08
11542;BME280;5827;49.482;7.716;2023-02-18T09:57:23;99529.66;;;13.61;84.19
11542;BME280;5827;49.482;7.716;2023-02-18T09:59:27;99523.34;;;13.38;84.77
11542;BME280;5827;49.482;7.716;2023-02-18T10:01:31;99521.22;;;13.40;84.15
11542;BME280;5827;49.482;7.716;2023-02-18T10:03:34;99521.06;;;13.64;83.67
11542;BME280;5827;49.482;7.716;2023-02-18T10:05:40;99511.03;;;13.59;83.60
11542;BME280;5827;49.482;7.716;2023-02-18T10:07:44;99511.03;;;13.42;83.64
11542;BME280;5827;49.482;7.716;2023-02-18T10:09:49;99505.50;;;13.49;83.89
11542;BME280;5827;49.482;7.716;2023-02-18T10:11:55;99505.09;;;13.57;82.75
11542;BME280;5827;49.482;7.716;2023-02-18T10:13:58;99513.47;;;13.44;81.73
11542;BME280;5827;49.482;7.716;2023-02-18T10:16:02;99512.75;;;13.48;82.45
11542;BME280;5827;49.482;7.716;2023-02-18T10:18:15;99510.97;;;13.71;81.17
11542;BME280;5827;49.482;7.716;2023-02-18T10:20:23;99525.97;;;13.67;80.99
11542;BME280;5827;49.482;7.716;2023-02-18T10:22:26;99538.28;;;13.96;79.90
11542;BME280;5827;49.482;7.716;2023-02-18T10:24:31;99531.50;;;13.60;80.16
11542;BME280;5827;49.482;7.716;2023-02-18T10:26:37;99540.81;;;14.03;80.05
11542;BME280;5827;49.482;7.716;2023-02-18T10:28:39;99536.09;;;13.93;78.31
11542;BME280;5827;49.482;7.716;2023-02-18T10:30:42;99546.53;;;13.90;78.13
11542;BME280;5827;49.482;7.716;2023-02-18T10:32:47;99555.09;;;14.04;77.36
11542;BME280;5827;49.482;7.716;2023-02-18T10:34:53;99558.19;;;13.95;77.25
11542;BME280;5827;49.482;7.716;2023-02-18T10:37:03;99563.34;;;13.97;77.31
11542;BME280;5827;49.482;7.716;2023-02-18T10:41:50;99566.75;;;13.59;77.73
11542;BME280;5827;49.482;7.716;2023-02-18T10:43:58;99560.72;;;13.68;77.77
11542;BME280;5827;49.482;7.716;2023-02-18T10:46:07;99556.97;;;13.69;77.19
11542;BME280;5827;49.482;7.716;2023-02-18T10:48:27;99576.59;;;13.98;76.88
11542;BME280;5827;49.482;7.716;2023-02-18T10:50:36;99575.41;;;14.28;75.08
11542;BME280;5827;49.482;7.716;2023-02-18T10:52:40;99578.75;;;14.35;75.04
11542;BME280;5827;49.482;7.716;2023-02-18T10:54:52;99576.56;;;14.15;74.48
11542;BME280;5827;49.482;7.716;2023-02-18T10:56:59;99574.31;;;14.29;74.32
11542;BME280;5827;49.482;7.716;2023-02-18T10:59:11;99569.06;;;14.17;74.71
11542;BME280;5827;49.482;7.716;2023-02-18T11:01:15;99573.09;;;14.54;73.35
11542;BME280;5827;49.482;7.716;2023-02-18T11:03:19;99574.78;;;14.43;73.03
11542;BME280;5827;49.482;7.716;2023-02-18T11:05:23;99566.44;;;14.61;74.26
11542;BME280;5827;49.482;7.716;2023-02-18T11:07:30;99573.44;;;14.40;73.46